createdAt,value
2018-04-13T00:01:12.639Z,136.90
2018-04-13T00:04:22.019Z,107.23
2018-04-13T00:07:31.466Z,139.43
2018-04-13T00:10:41.683Z,252.30
2018-04-13T00:13:52.032Z,193.57
2018-04-13T00:17:03.890Z,193.07
2018-04-13T00:20:15.134Z,230.07
2018-04-13T00:23:24.559Z,183.87
2018-04-13T00:26:34.483Z,167.70
2018-04-13T00:29:44.721Z,149.33
2018-04-13T00:32:54.927Z,134.90
2018-04-13T00:36:04.909Z,210.63
2018-04-13T00:39:15.045Z,216.97
2018-04-13T00:42:25.352Z,101.17
2018-04-13T00:45:34.774Z,142.10
2018-04-13T00:48:44.324Z,196.80
2018-04-13T00:51:53.843Z,172.13
2018-04-13T00:55:03.263Z,296.13
2018-04-13T00:58:12.745Z,236.73
2018-04-13T01:01:22.159Z,205.57
2018-04-13T01:04:31.719Z,193.87
2018-04-13T01:07:41.855Z,232.73
2018-04-13T01:10:51.277Z,188.83
2018-04-13T01:14:01.635Z,252.10
2018-04-13T01:17:11.627Z,185.63
2018-04-13T01:20:22.070Z,135.97
2018-04-13T01:23:31.792Z,241.27
2018-04-13T01:26:45.269Z,131.07
2018-04-13T01:29:54.527Z,197.13
2018-04-13T01:33:06.711Z,259.33
2018-04-13T01:36:16.443Z,268.40
2018-04-13T01:39:27.095Z,115.33
2018-04-13T01:42:36.539Z,103.83
2018-04-13T01:45:46.467Z,133.70
2018-04-13T01:48:56.651Z,236.73
2018-04-13T01:52:06.003Z,237.10
2018-04-13T01:55:15.408Z,210.90
2018-04-13T01:58:25.871Z,278.30
2018-04-13T02:01:36.288Z,327.60
2018-04-13T02:04:49.616Z,163.97
2018-04-13T02:07:59.054Z,251.80
2018-04-13T02:11:09.582Z,127.70
2018-04-13T02:14:19.158Z,111.80
2018-04-13T02:17:29.549Z,182.43
2018-04-13T02:20:39.118Z,118.50
2018-04-13T02:23:50.351Z,95.73
2018-04-13T02:26:59.807Z,147.73
2018-04-13T02:30:09.309Z,292.17
2018-04-13T02:33:23.411Z,322.70
2018-04-13T02:36:32.831Z,317.43
2018-04-13T02:39:42.860Z,341.37
2018-04-13T02:42:53.145Z,354.53
2018-04-13T02:46:03.412Z,382.37
2018-04-13T02:49:12.878Z,228.00
2018-04-13T02:52:22.164Z,379.60
2018-04-13T02:55:31.736Z,307.27
2018-04-13T02:58:41.592Z,187.40
2018-04-13T03:01:51.846Z,216.30
2018-04-13T03:05:01.341Z,227.67
2018-04-13T03:08:11.539Z,261.63
2018-04-13T03:11:21.803Z,407.37
2018-04-13T03:14:31.251Z,413.00
2018-04-13T03:17:41.160Z,393.67
2018-04-13T03:20:50.702Z,316.53
2018-04-13T03:24:00.194Z,176.30
2018-04-13T03:27:09.683Z,148.90
2018-04-13T03:30:19.058Z,100.77
2018-04-13T03:33:28.950Z,232.67
2018-04-13T03:36:38.415Z,264.63
2018-04-13T03:39:47.829Z,206.70
2018-04-13T03:42:58.374Z,183.87
2018-04-13T03:46:07.896Z,206.63
2018-04-13T03:49:18.181Z,110.20
2018-04-13T03:52:27.606Z,121.37
2018-04-13T03:55:37.751Z,276.97
2018-04-13T03:58:47.679Z,268.80
2018-04-13T04:01:57.771Z,193.00
2018-04-13T04:05:07.056Z,193.93
2018-04-13T04:08:17.725Z,207.77
2018-04-13T04:11:27.109Z,170.43
2018-04-13T04:14:37.432Z,175.93
2018-04-13T04:17:46.786Z,193.60
2018-04-13T04:21:14.091Z,170.67
2018-04-13T04:24:43.375Z,222.77
2018-04-13T04:27:52.836Z,166.53
2018-04-13T04:31:03.097Z,197.30
2018-04-13T04:34:13.019Z,316.40
2018-04-13T04:37:23.291Z,272.10
2018-04-13T04:40:33.139Z,206.97
2018-04-13T04:43:43.608Z,241.13
2018-04-13T04:46:53.088Z,235.60
2018-04-13T04:50:03.484Z,233.33
2018-04-13T04:53:13.778Z,355.67
2018-04-13T04:56:24.041Z,184.53
2018-04-13T04:59:37.171Z,133.40
2018-04-13T05:02:46.628Z,196.00
2018-04-13T05:05:56.456Z,156.83
2018-04-13T05:09:06.716Z,181.47
2018-04-13T05:12:16.563Z,188.17
2018-04-13T05:15:26.429Z,166.07
2018-04-13T05:18:35.911Z,203.53
2018-04-13T05:21:47.991Z,139.37
2018-04-13T05:24:57.368Z,152.80
2018-04-13T05:28:06.900Z,199.57
2018-04-13T05:31:16.352Z,255.17
2018-04-13T05:34:26.148Z,274.63
2018-04-13T05:37:36.447Z,403.93
2018-04-13T05:40:46.862Z,309.53
2018-04-13T05:43:57.663Z,303.83
2018-04-13T05:47:08.418Z,270.23
2018-04-13T05:50:17.992Z,237.00
2018-04-13T05:53:28.100Z,183.10
2018-04-13T05:56:37.590Z,288.63
2018-04-13T05:59:48.819Z,244.47
2018-04-13T06:02:59.087Z,262.70
2018-04-13T06:06:08.962Z,200.20
2018-04-13T06:09:19.184Z,208.67
2018-04-13T06:12:29.162Z,196.93
2018-04-13T06:15:39.275Z,184.10
2018-04-13T06:18:49.626Z,195.73
2018-04-13T06:21:59.874Z,184.13
2018-04-13T06:25:09.483Z,158.50
2018-04-13T06:28:19.679Z,161.07
2018-04-13T06:31:29.206Z,164.23
2018-04-13T06:34:38.440Z,158.70
2018-04-13T06:37:48.262Z,147.33
2018-04-13T06:41:03.399Z,143.83
2018-04-13T06:44:13.534Z,130.87
2018-04-13T06:47:23.360Z,142.80
2018-04-13T06:50:33.603Z,130.73
2018-04-13T06:53:43.022Z,146.27
2018-04-13T06:56:53.348Z,131.93
2018-04-13T07:00:03.212Z,132.70
2018-04-13T07:03:12.591Z,122.87
2018-04-13T07:06:22.047Z,125.40
2018-04-13T07:09:31.506Z,118.07
2018-04-13T07:12:41.732Z,121.43
2018-04-13T07:15:52.008Z,120.23
2018-04-13T07:19:01.432Z,119.33
2018-04-13T07:22:11.562Z,114.13
2018-04-13T07:25:21.832Z,112.97
2018-04-13T07:28:31.583Z,115.97
2018-04-13T07:31:41.783Z,111.87
2018-04-13T07:34:52.046Z,118.40
2018-04-13T07:38:02.247Z,110.13
2018-04-13T07:41:12.632Z,108.00
2018-04-13T07:44:22.760Z,94.33
2018-04-13T07:47:32.462Z,94.17
2018-04-13T07:50:42.100Z,85.97
2018-04-13T07:53:51.745Z,96.60
2018-04-13T07:57:02.395Z,98.03
2018-04-13T08:00:12.284Z,88.30
2018-04-13T08:03:22.147Z,102.37
2018-04-13T08:06:32.540Z,94.70
2018-04-13T08:09:42.850Z,98.77
2018-04-13T08:12:52.248Z,95.63
2018-04-13T08:16:01.699Z,91.77
2018-04-13T08:19:11.799Z,93.90
2018-04-13T08:22:21.399Z,91.50
2018-04-13T08:25:30.689Z,96.47
2018-04-13T08:28:40.072Z,98.27
2018-04-13T08:31:50.422Z,88.60
2018-04-13T08:34:59.951Z,92.47
2018-04-13T08:38:10.253Z,87.30
2018-04-13T08:41:20.121Z,90.50
2018-04-13T08:44:29.762Z,79.53
2018-04-13T08:47:39.203Z,87.87
2018-04-13T08:50:48.668Z,81.27
2018-04-13T08:53:59.059Z,85.50
2018-04-13T08:57:08.595Z,84.10
2018-04-13T09:00:17.995Z,75.03
2018-04-13T09:03:27.948Z,75.60
2018-04-13T09:06:37.237Z,74.17
2018-04-13T09:09:46.719Z,69.03
2018-04-13T09:12:56.560Z,69.30
2018-04-13T09:16:07.608Z,77.57
2018-04-13T09:19:17.146Z,68.20
2018-04-13T09:22:27.383Z,67.47
2018-04-13T09:25:37.156Z,67.80
2018-04-13T09:28:46.648Z,61.97
2018-04-13T09:31:56.132Z,55.93
2018-04-13T09:35:06.151Z,47.40
2018-04-13T09:38:15.647Z,45.87
2018-04-13T09:41:25.004Z,40.17
2018-04-13T09:44:35.681Z,37.67
2018-04-13T09:47:45.099Z,40.47
2018-04-13T09:50:54.555Z,39.37
2018-04-13T09:54:04.380Z,43.27
2018-04-13T09:57:13.872Z,24.07
2018-04-13T10:00:30.000Z,37.23
2018-04-13T10:03:45.242Z,31.90
2018-04-13T10:06:54.638Z,33.87
2018-04-13T10:10:04.909Z,35.23
2018-04-13T10:13:14.384Z,31.33
2018-04-13T10:16:23.846Z,31.13
2018-04-13T10:19:33.296Z,29.37
2018-04-13T10:22:43.472Z,28.97
2018-04-13T10:25:52.807Z,32.60
2018-04-13T10:29:02.790Z,32.70
2018-04-13T10:32:13.121Z,28.77
2018-04-13T10:35:22.467Z,29.00
2018-04-13T10:38:31.751Z,33.20
2018-04-13T10:41:41.996Z,29.37
2018-04-13T10:44:53.261Z,31.47
2018-04-13T10:48:03.550Z,29.47
2018-04-13T10:51:12.959Z,31.93
2018-04-13T10:54:22.853Z,32.37
2018-04-13T10:57:33.384Z,34.83
2018-04-13T11:00:43.343Z,32.07
2018-04-13T11:03:53.251Z,31.40
2018-04-13T11:07:03.048Z,28.70
2018-04-13T11:10:13.356Z,29.20
2018-04-13T11:13:22.843Z,33.60
2018-04-13T11:16:32.200Z,33.70
2018-04-13T11:19:41.642Z,30.07
2018-04-13T11:22:52.416Z,26.13
2018-04-13T11:26:02.593Z,23.37
2018-04-13T11:29:11.992Z,23.67
2018-04-13T11:32:21.511Z,20.77
2018-04-13T11:35:31.331Z,21.13
2018-04-13T11:38:40.981Z,22.03
2018-04-13T11:41:52.156Z,21.63
2018-04-13T11:45:01.686Z,19.73
2018-04-13T11:48:11.783Z,18.80
2018-04-13T11:51:21.395Z,15.20
2018-04-13T11:54:30.796Z,13.23
2018-04-13T11:57:40.263Z,13.77
2018-04-13T12:00:50.067Z,12.63
2018-04-13T12:03:59.544Z,13.20
2018-04-13T12:07:08.972Z,16.20
2018-04-13T12:10:18.451Z,12.27
2018-04-13T12:13:28.243Z,13.63
2018-04-13T12:16:37.689Z,12.93
2018-04-13T12:19:47.603Z,14.23
2018-04-13T12:22:57.028Z,16.23
2018-04-13T12:26:07.256Z,15.87
2018-04-13T12:29:16.927Z,18.10
2018-04-13T12:32:28.007Z,18.23
2018-04-13T12:35:38.243Z,18.80
2018-04-13T12:38:47.656Z,16.80
2018-04-13T12:41:57.122Z,16.57
2018-04-13T12:45:07.402Z,19.40
2018-04-13T12:48:17.667Z,20.03
2018-04-13T12:51:27.512Z,24.27
2018-04-13T12:54:37.810Z,20.33
2018-04-13T12:57:47.439Z,18.43
2018-04-13T13:00:57.675Z,26.47
2018-04-13T13:04:07.588Z,22.37
2018-04-13T13:07:17.999Z,22.23
2018-04-13T13:10:27.881Z,23.87
2018-04-13T13:13:38.091Z,24.07
2018-04-13T13:16:48.345Z,24.07
2018-04-13T13:19:58.215Z,24.23
2018-04-13T13:23:08.219Z,27.13
2018-04-13T13:26:18.107Z,24.53
2018-04-13T13:29:27.559Z,29.40
2018-04-13T13:32:37.119Z,29.30
2018-04-13T13:35:46.421Z,25.57
2018-04-13T13:38:55.901Z,27.70
2018-04-13T13:42:05.857Z,27.77
2018-04-13T13:45:15.189Z,27.13
2018-04-13T13:48:25.387Z,28.37
2018-04-13T13:51:34.920Z,26.93
2018-04-13T13:54:44.683Z,26.30
2018-04-13T13:57:54.150Z,28.20
2018-04-13T14:01:03.855Z,30.33
2018-04-13T14:04:13.270Z,27.67
2018-04-13T14:07:22.779Z,29.67
2018-04-13T14:10:32.948Z,28.07
2018-04-13T14:13:42.755Z,28.63
2018-04-13T14:16:52.831Z,29.20
2018-04-13T14:20:03.069Z,31.70
2018-04-13T14:23:12.547Z,25.27
2018-04-13T14:26:22.228Z,25.20
2018-04-13T14:29:32.438Z,27.10
2018-04-13T14:32:45.711Z,28.50
2018-04-13T14:35:56.329Z,27.10
2018-04-13T14:39:06.561Z,25.10
2018-04-13T14:42:15.944Z,32.47
2018-04-13T14:45:26.995Z,29.53
2018-04-13T14:48:37.296Z,26.83
2018-04-13T14:51:47.148Z,29.90
2018-04-13T14:54:57.388Z,25.20
2018-04-13T14:58:06.823Z,34.37
2018-04-13T15:01:17.280Z,29.40
2018-04-13T15:04:26.781Z,26.73
2018-04-13T15:07:37.056Z,30.17
2018-04-13T15:10:47.075Z,27.93
2018-04-13T15:13:57.120Z,26.03
2018-04-13T15:17:06.615Z,30.13
2018-04-13T15:20:16.013Z,24.20
2018-04-13T15:23:26.224Z,23.47
2018-04-13T15:26:36.509Z,28.63
2018-04-13T15:29:45.950Z,29.07
2018-04-13T15:32:56.231Z,27.50
2018-04-13T15:36:05.643Z,27.80
2018-04-13T15:39:15.204Z,27.73
2018-04-13T15:42:25.350Z,27.60
2018-04-13T15:45:35.483Z,28.17
2018-04-13T15:48:45.513Z,28.40
2018-04-13T15:51:54.959Z,26.27
2018-04-13T15:55:04.344Z,27.43
2018-04-13T15:58:15.433Z,28.90
2018-04-13T16:01:25.292Z,29.50
2018-04-13T16:04:35.351Z,30.57
2018-04-13T16:07:45.211Z,34.93
2018-04-13T16:10:55.079Z,34.87
2018-04-13T16:14:05.309Z,28.50
2018-04-13T16:17:15.572Z,31.97
2018-04-13T16:20:25.011Z,33.97
2018-04-13T16:23:34.852Z,37.93
2018-04-13T16:26:44.610Z,42.53
2018-04-13T16:29:54.611Z,35.30
2018-04-13T16:33:03.984Z,34.97
2018-04-13T16:36:13.825Z,34.83
2018-04-13T16:39:23.896Z,36.30
2018-04-13T16:42:34.001Z,35.33
2018-04-13T16:45:44.208Z,35.00
2018-04-13T16:48:53.628Z,40.30
2018-04-13T16:52:02.963Z,30.43
2018-04-13T16:55:12.727Z,28.97
2018-04-13T16:58:22.210Z,30.73
2018-04-13T17:01:32.433Z,32.97
2018-04-13T17:04:41.897Z,35.00
2018-04-13T17:07:51.340Z,31.20
2018-04-13T17:11:01.977Z,35.07
2018-04-13T17:14:13.234Z,29.67
2018-04-13T17:17:22.905Z,30.60
2018-04-13T17:20:32.790Z,33.33
2018-04-13T17:23:42.232Z,31.80
2018-04-13T17:26:52.448Z,35.93
2018-04-13T17:30:01.936Z,30.70
2018-04-13T17:33:12.176Z,31.33
2018-04-13T17:36:22.855Z,31.87
2018-04-13T17:39:32.272Z,34.40
2018-04-13T17:42:41.732Z,32.60
2018-04-13T17:45:51.188Z,35.03
2018-04-13T17:49:00.639Z,31.10
2018-04-13T17:52:11.820Z,31.67
2018-04-13T17:55:21.361Z,34.33
2018-04-13T17:58:31.585Z,38.23
2018-04-13T18:01:41.728Z,32.93
2018-04-13T18:04:56.585Z,34.20
2018-04-13T18:08:06.479Z,35.93
2018-04-13T18:11:16.758Z,36.07
2018-04-13T18:14:26.325Z,37.10
2018-04-13T18:17:35.810Z,36.70
2018-04-13T18:20:45.369Z,37.30
2018-04-13T18:23:54.681Z,38.30
2018-04-13T18:27:04.153Z,44.57
2018-04-13T18:30:13.968Z,50.13
2018-04-13T18:33:24.075Z,45.87
2018-04-13T18:36:34.343Z,45.63
2018-04-13T18:39:44.451Z,45.40
2018-04-13T18:42:54.627Z,46.50
2018-04-13T18:46:04.496Z,49.93
2018-04-13T18:49:14.140Z,43.83
2018-04-13T18:52:24.408Z,50.73
2018-04-13T18:55:34.317Z,46.53
2018-04-13T18:58:43.750Z,46.50
2018-04-13T19:01:53.935Z,46.07
2018-04-13T19:05:03.874Z,45.87
2018-04-13T19:08:14.484Z,48.43
2018-04-13T19:11:24.280Z,49.77
2018-04-13T19:14:34.590Z,49.73
2018-04-13T19:17:44.385Z,45.57
2018-04-13T19:20:54.935Z,46.53
2018-04-13T19:24:04.858Z,50.17
2018-04-13T19:27:15.820Z,46.87
2018-04-13T19:30:25.041Z,52.77
2018-04-13T19:33:35.314Z,44.43
2018-04-13T19:36:44.826Z,52.30
2018-04-13T19:39:55.545Z,39.33
2018-04-13T19:43:07.556Z,46.57
2018-04-13T19:46:17.679Z,52.33
2018-04-13T19:49:27.028Z,48.70
2018-04-13T19:52:36.431Z,51.33
2018-04-13T19:55:47.863Z,51.67
2018-04-13T19:58:59.008Z,51.83
2018-04-13T20:02:09.336Z,52.73
2018-04-13T20:05:19.424Z,59.20
2018-04-13T20:08:29.596Z,55.47
2018-04-13T20:11:39.076Z,65.17
2018-04-13T20:14:48.479Z,68.97
2018-04-13T20:17:58.373Z,67.67
2018-04-13T20:21:08.145Z,74.60
2018-04-13T20:24:18.035Z,76.37
2018-04-13T20:27:27.877Z,81.37
2018-04-13T20:30:38.505Z,88.70
2018-04-13T20:33:48.008Z,89.90
2018-04-13T20:36:58.337Z,84.53
2018-04-13T20:40:08.713Z,95.53
2018-04-13T20:43:17.967Z,100.50
2018-04-13T20:46:27.427Z,97.20
2018-04-13T20:49:37.224Z,101.03
2018-04-13T20:52:46.680Z,99.93
2018-04-13T20:55:56.924Z,97.37
2018-04-13T20:59:06.392Z,100.20
2018-04-13T21:02:16.872Z,105.00
2018-04-13T21:05:26.327Z,94.10
2018-04-13T21:08:36.528Z,101.10
2018-04-13T21:11:46.033Z,94.73
2018-04-13T21:14:56.043Z,96.33
2018-04-13T21:18:05.313Z,94.90
2018-04-13T21:21:14.762Z,97.60
2018-04-13T21:24:24.159Z,98.83
2018-04-13T21:27:33.452Z,101.07
2018-04-13T21:30:42.826Z,99.43
2018-04-13T21:33:52.726Z,95.90
2018-04-13T21:37:02.556Z,102.00
2018-04-13T21:40:11.868Z,98.57
2018-04-13T21:43:22.096Z,105.83
2018-04-13T21:46:32.812Z,104.03
2018-04-13T21:49:42.623Z,102.17
2018-04-13T21:52:52.936Z,103.73
2018-04-13T21:56:04.884Z,103.23
2018-04-13T21:59:14.452Z,100.43
2018-04-13T22:02:23.884Z,102.70
2018-04-13T22:05:34.970Z,108.93
2018-04-13T22:08:44.884Z,105.07
2018-04-13T22:11:55.313Z,100.97
2018-04-13T22:15:05.556Z,106.20
2018-04-13T22:18:15.376Z,98.43
2018-04-13T22:21:25.892Z,110.83
2018-04-13T22:24:35.553Z,108.97
2018-04-13T22:27:44.999Z,103.47
2018-04-13T22:30:55.516Z,105.47
2018-04-13T22:34:06.107Z,107.80
2018-04-13T22:37:15.949Z,104.40
2018-04-13T22:40:26.194Z,105.93
2018-04-13T22:43:37.436Z,109.27
2018-04-13T22:46:47.173Z,108.57
2018-04-13T22:49:57.392Z,113.20
2018-04-13T22:53:07.650Z,113.63
2018-04-13T22:56:17.479Z,117.93
2018-04-13T22:59:27.003Z,123.47
2018-04-13T23:02:37.204Z,124.53
2018-04-13T23:05:46.761Z,124.57
2018-04-13T23:08:57.392Z,113.37
2018-04-13T23:12:07.123Z,112.17
2018-04-13T23:15:16.650Z,116.23
2018-04-13T23:18:26.841Z,124.53
2018-04-13T23:21:37.060Z,128.20
2018-04-13T23:24:46.593Z,116.77
2018-04-13T23:27:55.990Z,126.73
2018-04-13T23:31:05.426Z,124.07
2018-04-13T23:34:14.866Z,125.33
2018-04-13T23:37:24.351Z,124.27
2018-04-13T23:40:33.965Z,121.20
2018-04-13T23:43:43.396Z,120.57
2018-04-13T23:46:52.923Z,136.23
2018-04-13T23:50:03.115Z,130.70
2018-04-13T23:53:13.356Z,129.03
2018-04-13T23:56:23.619Z,134.00
2018-04-13T23:59:33.184Z,131.00
